Terminal Aerodrome Forecast
Issued by NWS

Current Version | Previous Version | Graphics & Text | Print | Product List | Glossary On
Versions: 1 2 3 4 5 6 7 8 9 10 11 12 13 14 15 16 17 18 19 20 21 22 23 24 25 26 27
000
FTUS41 KRLX 251740 AAD
TAFCKB
TAF AMD
KCKB 251740Z 2518/2618 25012G19KT P6SM BKN008 BKN025
     FM251830 25013G20KT P6SM SCT008 SCT025 BKN040
     FM251900 25013G20KT P6SM BKN040
     FM252200 26013G21KT P6SM BKN025
     FM260300 28011G18KT P6SM BKN035
     FM261300 26008KT P6SM SCT045
     FM261700 25008KT P6SM SKC=

USA.gov is the U.S. government's official web portal to all federal, state and local government web resources and services.